Time;durP1;ratioP1;P1;durP2;ratioP2;P2;SDS_P1;SDS_P2;PMS_P1;PMS_P2;Temp;Humidity;BMP_temperature;BMP_pressure;BME280_temperature;BME280_humidity;BME280_pressure;Samples;Min_cycle;Max_cycle;Signal;HPM_P1;HPM_P2
2023/09/01 00:03:06;;;;;;;1.47;1.03;;;;;;;14.75;97.30;101003.38;6243177;28;20796;-67
2023/09/01 00:06:27;;;;;;;1.83;1.50;;;;;;;14.73;97.21;101005.34;6248293;28;20227;-66
2023/09/01 00:09:51;;;;;;;1.70;1.50;;;;;;;14.73;97.13;101011.66;6201446;28;20497;-66
2023/09/01 00:13:12;;;;;;;1.53;1.43;;;;;;;14.53;97.24;101022.88;6235875;28;21605;-65
2023/09/01 00:16:32;;;;;;;1.93;1.60;;;;;;;14.43;97.69;101014.84;6246227;28;20243;-66
2023/09/01 00:19:53;;;;;;;3.97;1.70;;;;;;;14.54;97.95;101014.56;6245065;28;20319;-67
2023/09/01 00:23:14;;;;;;;1.70;1.60;;;;;;;14.54;98.18;101014.56;6249255;28;20269;-67
2023/09/01 00:26:37;;;;;;;5.07;1.77;;;;;;;14.69;97.80;101012.97;6251485;28;20231;-67
2023/09/01 00:29:58;;;;;;;2.57;1.57;;;;;;;14.67;97.60;101014.13;6246918;28;20537;-67
2023/09/01 00:33:19;;;;;;;1.47;1.30;;;;;;;14.77;97.20;101010.31;6246065;28;20231;-66
2023/09/01 00:36:40;;;;;;;4.47;1.80;;;;;;;14.91;96.63;101023.31;6250588;28;20247;-67
2023/09/01 00:40:01;;;;;;;1.77;1.57;;;;;;;14.82;96.38;101021.56;6233385;28;20642;-67
2023/09/01 00:43:23;;;;;;;2.47;1.33;;;;;;;14.71;96.54;101021.81;6233763;28;20800;-66
2023/09/01 00:46:46;;;;;;;4.80;2.10;;;;;;;14.71;96.23;101023.66;6243215;28;20240;-67
2023/09/01 00:50:08;;;;;;;2.10;1.90;;;;;;;14.67;96.40;101016.84;6245137;28;20992;-66
2023/09/01 00:53:29;;;;;;;2.03;1.77;;;;;;;14.73;96.29;101024.34;6247416;28;20265;-68
2023/09/01 00:56:54;;;;;;;2.37;1.60;;;;;;;14.73;95.95;101027.06;6231237;28;20621;-67
2023/09/01 01:00:18;;;;;;;3.97;1.97;;;;;;;14.35;97.09;101020.19;6250824;28;20224;-67
2023/09/01 01:03:40;;;;;;;2.70;1.70;;;;;;;14.34;96.84;101029.31;6234967;28;20243;-67
2023/09/01 01:07:17;;;;;;;1.90;1.70;;;;;;;14.43;97.12;101020.25;6243189;28;20543;-67
2023/09/01 01:10:51;;;;;;;2.13;1.20;;;;;;;14.24;97.49;101013.13;6223094;28;20227;-66
2023/09/01 01:14:16;;;;;;;2.00;1.70;;;;;;;14.19;97.85;101012.72;6247108;28;20235;-66
2023/09/01 01:17:41;;;;;;;3.97;1.83;;;;;;;14.40;97.42;100999.72;6245658;28;20618;-66
2023/09/01 01:21:09;;;;;;;3.23;1.93;;;;;;;14.36;97.36;101006.47;6246333;28;20228;-67
2023/09/01 01:24:32;;;;;;;2.10;1.63;;;;;;;14.31;97.32;101000.66;6230414;28;20231;-67
2023/09/01 01:27:58;;;;;;;3.97;2.50;;;;;;;14.17;97.86;101001.19;6246940;28;20774;-67
2023/09/01 01:31:19;;;;;;;2.47;1.90;;;;;;;14.13;98.01;101004.34;6244532;28;20232;-67
2023/09/01 01:34:45;;;;;;;2.33;1.60;;;;;;;14.23;98.10;101014.13;6229064;28;20265;-67
2023/09/01 01:38:12;;;;;;;2.00;1.77;;;;;;;14.15;98.61;101008.63;6248951;28;20263;-66
2023/09/01 01:41:41;;;;;;;1.87;1.57;;;;;;;14.18;98.45;101016.47;6233250;28;20228;-67
2023/09/01 01:45:03;;;;;;;2.23;1.50;;;;;;;14.29;98.11;101018.94;6255010;28;20239;-67
2023/09/01 01:48:24;;;;;;;3.27;1.83;;;;;;;14.07;98.63;101013.97;6250053;28;20318;-67
2023/09/01 01:51:45;;;;;;;3.07;1.60;;;;;;;14.03;98.63;101022.56;6230992;28;20290;-67
2023/09/01 01:55:07;;;;;;;2.00;1.60;;;;;;;14.20;98.69;101013.59;6236742;28;20785;-66
2023/09/01 01:58:29;;;;;;;1.60;1.37;;;;;;;14.19;98.71;101025.44;6243245;28;20231;-67
2023/09/01 02:01:50;;;;;;;5.27;2.07;;;;;;;14.20;98.11;101013.59;6229754;28;20232;-65
2023/09/01 02:05:11;;;;;;;5.97;1.87;;;;;;;14.28;98.09;101025.41;6246308;28;20235;-66
2023/09/01 02:08:32;;;;;;;1.90;1.80;;;;;;;14.19;98.34;101036.28;6241547;28;20232;-67
2023/09/01 02:11:53;;;;;;;8.03;2.17;;;;;;;14.03;98.62;101031.56;6247115;28;20362;-67
2023/09/01 02:15:15;;;;;;;3.37;1.83;;;;;;;14.13;98.58;101029.63;6247869;28;20307;-67
2023/09/01 02:18:36;;;;;;;1.83;1.40;;;;;;;14.08;98.57;101034.63;6237172;28;20228;-67
2023/09/01 02:21:57;;;;;;;2.53;1.83;;;;;;;14.21;98.36;101029.69;6228986;28;20235;-66
2023/09/01 02:25:18;;;;;;;2.27;1.90;;;;;;;14.26;98.15;101046.34;6235409;28;20239;-67
2023/09/01 02:28:38;;;;;;;2.97;1.70;;;;;;;14.27;97.69;101044.47;6235748;28;20319;-67
2023/09/01 02:32:01;;;;;;;3.00;2.23;;;;;;;14.26;97.42;101043.66;6249355;28;20228;-66
2023/09/01 02:35:22;;;;;;;3.00;2.00;;;;;;;14.21;97.26;101037.81;6228184;28;20243;-66
2023/09/01 02:38:43;;;;;;;2.90;2.57;;;;;;;14.24;97.07;101052.94;6252917;28;20227;-66
2023/09/01 02:42:04;;;;;;;3.30;1.93;;;;;;;14.34;97.07;101053.75;6252192;28;20240;-67
2023/09/01 02:45:25;;;;;;;2.17;1.90;;;;;;;14.13;96.95;101047.75;6247513;28;20236;-66
2023/09/01 02:48:49;;;;;;;2.53;1.40;;;;;;;14.25;97.03;101050.06;6250529;28;20224;-66
2023/09/01 02:52:10;;;;;;;2.33;1.80;;;;;;;14.08;97.21;101050.09;6251357;28;20262;-67
2023/09/01 02:55:31;;;;;;;4.33;2.33;;;;;;;14.02;97.37;101051.53;6253774;28;21867;-67
2023/09/01 02:58:52;;;;;;;4.10;2.23;;;;;;;13.86;97.79;101045.94;6253707;28;20231;-66
2023/09/01 03:02:13;;;;;;;3.37;2.23;;;;;;;14.02;98.17;101048.81;6247742;28;20228;-66
2023/09/01 03:05:35;;;;;;;3.30;2.40;;;;;;;14.18;98.13;101056.28;6234754;28;20258;-66
2023/09/01 03:08:57;;;;;;;2.53;1.77;;;;;;;14.05;97.88;101056.66;6241268;28;20232;-66
2023/09/01 03:12:17;;;;;;;3.77;2.30;;;;;;;13.97;98.17;101051.16;6237565;28;20240;-67
2023/09/01 03:15:40;;;;;;;5.77;2.30;;;;;;;13.98;98.49;101055.56;6240649;28;20235;-66
2023/09/01 03:19:00;;;;;;;2.20;1.43;;;;;;;14.14;98.09;101050.28;6239351;28;20228;-68
2023/09/01 03:22:23;;;;;;;2.73;2.13;;;;;;;13.97;98.50;101053.88;6236703;28;20232;-67
2023/09/01 03:25:44;;;;;;;1.43;1.10;;;;;;;14.22;98.32;101058.53;6244119;28;20248;-67
2023/09/01 03:29:05;;;;;;;3.13;1.90;;;;;;;13.89;98.70;101052.94;6246235;28;20247;-66
2023/09/01 03:32:26;;;;;;;3.77;2.13;;;;;;;13.90;99.17;101060.03;6226959;28;20232;-67
2023/09/01 03:35:47;;;;;;;3.83;2.33;;;;;;;14.04;99.06;101062.25;6244131;28;20240;-67
2023/09/01 03:39:09;;;;;;;2.23;2.03;;;;;;;14.06;99.09;101060.22;6245252;28;21150;-67
2023/09/01 03:42:31;;;;;;;3.23;1.90;;;;;;;13.91;99.51;101054.47;6234339;28;20346;-66
2023/09/01 03:45:52;;;;;;;2.43;2.23;;;;;;;13.85;99.56;101060.50;6226440;28;20366;-67
2023/09/01 03:49:13;;;;;;;4.10;2.00;;;;;;;13.90;99.41;101050.06;6233855;28;20252;-67
2023/09/01 03:52:34;;;;;;;1.87;1.47;;;;;;;13.96;99.40;101056.72;6212159;28;20231;-67
2023/09/01 03:55:56;;;;;;;3.00;1.90;;;;;;;13.79;99.32;101060.28;6243976;28;20239;-67
2023/09/01 03:59:18;;;;;;;2.67;1.87;;;;;;;13.83;99.72;101067.09;6246054;28;21646;-67
2023/09/01 04:02:39;;;;;;;3.40;2.37;;;;;;;13.80;99.72;101061.97;6237117;28;20553;-67
2023/09/01 04:06:00;;;;;;;2.83;2.60;;;;;;;13.82;99.99;101065.38;6219857;28;20235;-67
2023/09/01 04:09:21;;;;;;;4.57;2.70;;;;;;;13.94;99.76;101059.56;6239309;28;20864;-67
2023/09/01 04:12:43;;;;;;;4.30;2.80;;;;;;;13.79;99.89;101058.38;6246567;28;20232;-66
2023/09/01 04:16:05;;;;;;;2.57;2.20;;;;;;;13.81;100.00;101058.25;6238201;28;20227;-66
2023/09/01 04:19:25;;;;;;;2.57;2.23;;;;;;;13.61;100.00;101066.50;6228205;28;20228;-65
2023/09/01 04:22:47;;;;;;;4.10;2.10;;;;;;;13.64;100.00;101066.19;6235747;28;20338;-66
2023/09/01 04:26:08;;;;;;;3.37;2.30;;;;;;;13.75;100.00;101069.72;6220548;28;21065;-67
2023/09/01 04:29:31;;;;;;;2.93;2.30;;;;;;;13.64;100.00;101077.00;6229170;28;20235;-66
2023/09/01 04:32:52;;;;;;;3.63;2.20;;;;;;;13.77;100.00;101076.66;6238834;28;20235;-67
2023/09/01 04:36:13;;;;;;;6.30;2.37;;;;;;;13.55;100.00;101072.53;6227840;28;20258;-67
2023/09/01 04:39:34;;;;;;;8.23;3.03;;;;;;;13.62;100.00;101078.19;6245383;28;20248;-66
2023/09/01 04:42:55;;;;;;;2.73;2.23;;;;;;;13.90;99.75;101088.00;6251319;28;20318;-67
2023/09/01 04:46:17;;;;;;;1.97;1.60;;;;;;;13.76;99.10;101091.22;6233875;28;20243;-66
2023/09/01 04:49:38;;;;;;;2.33;1.90;;;;;;;13.87;98.90;101084.75;6247216;28;21718;-68
2023/09/01 04:53:00;;;;;;;2.80;2.20;;;;;;;13.70;98.53;101090.97;6235028;28;20227;-67
2023/09/01 04:56:21;;;;;;;5.07;3.53;;;;;;;13.94;98.33;101086.69;6232419;28;20234;-66
2023/09/01 04:59:45;;;;;;;4.00;2.23;;;;;;;13.83;98.27;101096.91;6211220;28;20313;-66
2023/09/01 05:03:07;;;;;;;3.80;2.23;;;;;;;13.78;98.26;101088.34;6228762;28;20609;-66
2023/09/01 05:06:28;;;;;;;3.53;2.07;;;;;;;13.81;98.10;101088.06;6249542;28;20553;-66
2023/09/01 05:09:49;;;;;;;2.80;2.40;;;;;;;13.90;98.11;101097.97;6244631;28;20239;-67
2023/09/01 05:13:09;;;;;;;3.00;2.10;;;;;;;13.92;97.59;101098.69;6244924;28;20234;-66
2023/09/01 05:16:31;;;;;;;6.63;2.70;;;;;;;13.95;97.30;101112.81;6229517;28;20796;-67
2023/09/01 05:19:54;;;;;;;2.83;2.03;;;;;;;13.94;96.94;101110.22;6216653;28;20224;-66
2023/09/01 05:23:14;;;;;;;4.80;2.27;;;;;;;13.98;96.85;101109.78;6226992;28;20235;-67
2023/09/01 05:26:35;;;;;;;2.83;2.40;;;;;;;13.91;96.91;101108.69;6244291;28;20239;-66
2023/09/01 05:29:57;;;;;;;2.50;2.30;;;;;;;14.01;96.75;101111.31;6220965;28;20243;-67
2023/09/01 05:33:17;;;;;;;3.00;2.53;;;;;;;14.40;95.88;101116.34;6246891;28;20236;-66
2023/09/01 05:36:40;;;;;;;3.27;1.83;;;;;;;14.51;94.96;101120.69;6246413;28;20232;-66
2023/09/01 05:40:01;;;;;;;4.43;2.27;;;;;;;14.73;94.00;101122.06;6247575;28;20605;-66
2023/09/01 05:43:22;;;;;;;2.30;1.87;;;;;;;14.57;93.66;101120.06;6230933;28;20548;-66
2023/09/01 05:46:43;;;;;;;4.43;1.93;;;;;;;14.66;92.90;101126.44;6239706;28;20246;-69
2023/09/01 05:50:05;;;;;;;3.73;2.20;;;;;;;14.67;92.36;101128.13;6233864;28;20239;-67
2023/09/01 05:53:28;;;;;;;2.80;1.83;;;;;;;14.61;92.20;101128.75;6239494;28;20228;-67
2023/09/01 05:56:49;;;;;;;1.30;1.20;;;;;;;14.56;92.00;101129.19;6249586;28;20342;-66
2023/09/01 06:00:10;;;;;;;5.00;2.43;;;;;;;14.69;91.45;101136.94;6224732;28;20256;-65
2023/09/01 06:03:35;;;;;;;4.57;1.93;;;;;;;14.60;90.91;101133.34;6243204;28;20236;-67
2023/09/01 06:06:56;;;;;;;3.47;1.77;;;;;;;14.86;90.62;101133.38;6242835;28;20236;-67
2023/09/01 06:10:19;;;;;;;2.93;1.73;;;;;;;14.89;90.07;101138.50;6241501;28;20228;-67
2023/09/01 06:13:39;;;;;;;1.97;1.77;;;;;;;15.12;89.41;101136.97;6237693;28;22114;-66
2023/09/01 06:17:03;;;;;;;1.43;1.10;;;;;;;15.09;89.52;101153.59;6248841;28;20241;-67
2023/09/01 06:20:24;;;;;;;1.93;1.83;;;;;;;14.82;89.29;101154.56;6226214;28;20227;-67
2023/09/01 06:23:46;;;;;;;3.03;2.10;;;;;;;15.02;89.32;101153.34;6240880;28;20248;-65
2023/09/01 06:27:09;;;;;;;2.90;2.13;;;;;;;14.97;89.28;101146.72;6244533;28;20244;-66
2023/09/01 06:30:30;;;;;;;2.53;2.07;;;;;;;15.23;88.98;101150.28;6237568;28;20235;-66
2023/09/01 06:33:50;;;;;;;1.87;1.50;;;;;;;15.26;87.93;101155.41;6241455;28;20322;-65
2023/09/01 06:37:11;;;;;;;3.43;2.33;;;;;;;15.41;87.49;101161.09;6240131;28;20231;-67
2023/09/01 06:40:32;;;;;;;2.13;1.83;;;;;;;15.44;87.06;101161.66;6239124;28;20228;-66
2023/09/01 06:43:54;;;;;;;1.90;1.80;;;;;;;15.36;87.28;101161.59;6231169;28;20239;-66
2023/09/01 06:47:16;;;;;;;2.60;2.17;;;;;;;15.36;87.20;101177.03;6233485;28;20236;-66
2023/09/01 06:50:38;;;;;;;2.67;1.17;;;;;;;15.23;87.37;101178.31;6235390;28;20256;-65
2023/09/01 06:53:59;;;;;;;3.40;2.30;;;;;;;15.33;87.32;101172.78;6239530;28;20823;-66
2023/09/01 06:57:20;;;;;;;5.43;1.80;;;;;;;15.78;86.33;101173.41;6225651;28;20231;-66
2023/09/01 07:00:42;;;;;;;4.33;1.60;;;;;;;16.07;85.85;101164.88;6219512;28;20283;-65
2023/09/01 07:04:05;;;;;;;1.57;1.40;;;;;;;16.20;84.65;101169.84;6241099;28;20224;-66
2023/09/01 07:07:26;;;;;;;3.50;1.80;;;;;;;16.32;83.87;101169.38;6247450;28;20231;-64
2023/09/01 07:10:47;;;;;;;14.73;2.37;;;;;;;16.46;82.73;101179.59;6230512;28;20519;-67
2023/09/01 07:14:08;;;;;;;2.43;1.87;;;;;;;16.09;82.85;101178.28;6246947;28;20231;-67
2023/09/01 07:17:30;;;;;;;2.37;1.47;;;;;;;16.20;83.51;101192.47;6245900;28;20231;-67
2023/09/01 07:20:51;;;;;;;3.20;2.90;;;;;;;16.05;84.00;101182.34;6253208;28;20310;-66
2023/09/01 07:24:13;;;;;;;3.07;1.57;;;;;;;15.96;83.97;101197.78;6248180;28;20240;-67
2023/09/01 07:27:34;;;;;;;2.33;1.70;;;;;;;16.55;83.11;101202.28;6241165;28;20288;-69
2023/09/01 07:30:54;;;;;;;3.28;2.00;;;;;;;16.32;83.32;101199.31;6242067;28;20840;-68
2023/09/01 07:34:16;;;;;;;6.00;1.47;;;;;;;16.35;82.92;101192.69;6245390;28;20243;-66
2023/09/01 07:37:37;;;;;;;4.53;1.93;;;;;;;16.38;83.00;101189.63;6246296;28;20251;-65
2023/09/01 07:40:58;;;;;;;3.93;1.70;;;;;;;16.60;82.55;101194.47;6242159;28;21237;-67
2023/09/01 07:44:20;;;;;;;5.30;2.03;;;;;;;16.70;82.02;101195.19;6247135;28;20231;-65
2023/09/01 07:47:40;;;;;;;3.70;1.20;;;;;;;16.91;81.17;101195.53;6231087;28;20282;-65
2023/09/01 07:51:03;;;;;;;5.17;1.87;;;;;;;17.14;80.18;101204.75;6248263;28;20227;-64
2023/09/01 07:54:24;;;;;;;1.63;1.50;;;;;;;17.31;79.68;101211.03;6249707;28;21022;-66
2023/09/01 07:57:45;;;;;;;2.70;1.57;;;;;;;17.17;80.08;101206.25;6245450;28;20235;-65
2023/09/01 08:01:06;;;;;;;2.77;1.20;;;;;;;17.45;79.52;101210.34;6242574;28;20248;-66
2023/09/01 08:04:26;;;;;;;1.58;1.45;;;;;;;17.31;79.29;101211.03;6244260;28;20232;-65
2023/09/01 08:07:49;;;;;;;2.30;1.67;;;;;;;17.46;78.69;101220.19;6234980;28;20255;-66
2023/09/01 08:11:10;;;;;;;2.03;1.60;;;;;;;17.67;78.19;101217.00;6230398;28;20235;-68
2023/09/01 08:14:34;;;;;;;5.30;2.00;;;;;;;17.43;78.64;101223.28;6247984;28;20338;-66
2023/09/01 08:17:55;;;;;;;5.55;1.75;;;;;;;17.15;78.88;101228.22;6247402;28;20255;-66
2023/09/01 08:21:16;;;;;;;2.22;1.70;;;;;;;17.50;79.21;101227.06;6249358;28;20243;-66
2023/09/01 08:24:38;;;;;;;1.92;1.63;;;;;;;17.66;78.28;101220.72;6241526;28;21173;-66
2023/09/01 08:27:59;;;;;;;2.73;1.73;;;;;;;17.62;78.05;101220.22;6245878;28;20240;-66
2023/09/01 08:31:20;;;;;;;2.53;1.53;;;;;;;18.02;77.06;101230.19;6243029;28;20231;-66
2023/09/01 08:34:41;;;;;;;2.00;1.30;;;;;;;18.20;76.49;101228.94;6244934;28;20231;-65
2023/09/01 08:38:03;;;;;;;4.60;2.07;;;;;;;18.22;77.20;101226.88;6242424;28;20231;-66
2023/09/01 08:41:26;;;;;;;4.22;1.60;;;;;;;18.50;76.20;101230.03;6246034;28;20239;-66
2023/09/01 08:44:47;;;;;;;6.50;1.60;;;;;;;18.16;76.58;101232.19;6222036;28;20614;-67
2023/09/01 08:48:09;;;;;;;1.35;1.25;;;;;;;17.99;76.62;101234.13;6239672;28;20243;-66
2023/09/01 08:51:30;;;;;;;4.40;1.90;;;;;;;18.16;76.63;101237.63;6244693;28;20232;-66
2023/09/01 08:54:52;;;;;;;3.30;1.65;;;;;;;17.57;77.03;101236.25;6246015;28;20227;-66
2023/09/01 08:58:17;;;;;;;4.22;1.80;;;;;;;18.10;76.59;101238.34;6252707;28;20233;-66
2023/09/01 09:01:38;;;;;;;8.18;1.98;;;;;;;18.25;75.79;101231.97;6250100;28;20239;-67
2023/09/01 09:04:59;;;;;;;1.58;1.20;;;;;;;18.47;75.77;101226.78;6248402;28;20575;-67
2023/09/01 09:08:20;;;;;;;2.00;0.93;;;;;;;18.62;75.19;101227.72;6255095;28;20231;-67
2023/09/01 09:11:55;;;;;;;3.35;1.92;;;;;;;18.44;75.39;101225.25;6256569;28;20232;-67
2023/09/01 09:15:19;;;;;;;1.45;1.15;;;;;;;18.71;75.36;101226.66;6251633;28;20228;-67
2023/09/01 09:18:41;;;;;;;1.65;1.15;;;;;;;18.85;75.17;101234.94;6253162;28;21869;-67
2023/09/01 09:22:07;;;;;;;1.15;1.05;;;;;;;18.75;74.55;101237.06;6252531;28;20616;-67
2023/09/01 09:25:29;;;;;;;1.52;1.42;;;;;;;18.77;75.08;101239.59;6258789;28;20247;-65
2023/09/01 09:28:50;;;;;;;3.20;1.25;;;;;;;18.87;74.84;101241.06;6255655;28;20616;-67
2023/09/01 09:32:22;;;;;;;1.48;0.88;;;;;;;19.36;73.95;101230.63;6258390;28;20235;-67
2023/09/01 09:35:49;;;;;;;3.20;1.35;;;;;;;19.46;72.75;101224.91;6258300;28;20235;-66
2023/09/01 09:39:24;;;;;;;2.60;1.45;;;;;;;19.66;71.69;101217.84;6252054;28;21982;-66
2023/09/01 09:42:47;;;;;;;8.02;1.77;;;;;;;19.71;71.54;101221.72;6244817;28;20545;-67
2023/09/01 09:46:08;;;;;;;0.88;0.88;;;;;;;20.35;70.21;101214.69;6233850;28;20307;-66
2023/09/01 09:49:32;;;;;;;2.25;1.20;;;;;;;20.54;69.77;101219.56;6234390;28;20565;-67
2023/09/01 09:52:58;;;;;;;2.75;1.20;;;;;;;20.64;68.03;101232.94;6239097;28;20235;-67
2023/09/01 09:56:32;;;;;;;1.95;1.38;;;;;;;20.65;66.81;101231.91;6228390;28;20232;-66
2023/09/01 09:59:58;;;;;;;2.00;1.83;;;;;;;20.53;67.80;101228.81;6234408;28;20227;-66
2023/09/01 10:03:21;;;;;;;2.05;1.10;;;;;;;21.08;66.87;101243.81;6236300;28;20606;-66
2023/09/01 10:06:44;;;;;;;9.98;1.35;;;;;;;21.49;65.78;101220.97;6221894;28;20227;-66
2023/09/01 10:10:06;;;;;;;1.13;0.95;;;;;;;21.56;63.80;101228.41;6249063;28;20235;-66
2023/09/01 10:13:27;;;;;;;4.80;1.48;;;;;;;21.68;63.84;101233.16;6243367;28;20532;-67
2023/09/01 10:16:48;;;;;;;1.13;0.80;;;;;;;21.92;63.18;101227.25;6239338;28;20511;-67
2023/09/01 10:20:11;;;;;;;2.45;1.88;;;;;;;21.54;63.06;101245.09;6249389;28;20235;-67
2023/09/01 10:23:35;;;;;;;3.22;1.25;;;;;;;21.10;64.04;101247.19;6249634;28;20253;-66
2023/09/01 10:27:06;;;;;;;5.45;2.33;;;;;;;20.33;66.10;101251.50;6248050;28;20228;-66
2023/09/01 10:30:29;;;;;;;3.78;1.60;;;;;;;20.85;64.89;101252.16;6235884;28;20892;-67
2023/09/01 10:34:03;;;;;;;2.17;1.20;;;;;;;20.33;65.13;101254.25;6248913;28;20240;-65
2023/09/01 10:37:27;;;;;;;2.97;1.73;;;;;;;20.27;65.50;101249.53;6241667;28;20604;-66
2023/09/01 10:40:51;;;;;;;1.92;1.38;;;;;;;20.53;64.50;101247.13;6239953;28;20810;-65
2023/09/01 10:44:12;;;;;;;4.03;1.15;;;;;;;21.64;61.73;101233.75;6244939;28;20700;-66
2023/09/01 10:47:45;;;;;;;3.28;1.83;;;;;;;21.46;61.30;101248.81;6244632;28;20231;-66
2023/09/01 10:51:17;;;;;;;4.18;1.98;;;;;;;21.38;61.93;101256.34;6243755;28;20327;-67
2023/09/01 10:54:41;;;;;;;1.40;1.25;;;;;;;20.62;63.02;101254.22;6246496;28;20579;-66
2023/09/01 10:58:08;;;;;;;1.92;1.17;;;;;;;20.97;63.34;101253.34;6244068;28;20240;-66
2023/09/01 11:01:31;;;;;;;2.65;1.60;;;;;;;20.51;63.47;101255.56;6235774;28;20235;-66
2023/09/01 11:04:53;;;;;;;3.28;1.60;;;;;;;20.61;63.02;101258.00;6241096;28;20231;-66
2023/09/01 11:08:17;;;;;;;1.90;1.00;;;;;;;21.04;62.22;101259.81;6246003;28;20247;-67
2023/09/01 11:11:37;;;;;;;2.78;1.17;;;;;;;20.97;62.44;101266.22;6239545;28;20227;-66
2023/09/01 11:15:05;;;;;;;2.65;1.33;;;;;;;20.63;61.43;101262.22;6241479;28;20231;-67
2023/09/01 11:18:26;;;;;;;3.92;1.73;;;;;;;20.18;63.46;101267.91;6248700;28;20227;-65
2023/09/01 11:21:47;;;;;;;2.50;1.40;;;;;;;21.25;61.42;101278.16;6228266;28;20325;-66
2023/09/01 11:25:10;;;;;;;3.15;1.05;;;;;;;22.23;59.40;101274.34;6250563;28;20243;-67
2023/09/01 11:28:33;;;;;;;2.58;1.70;;;;;;;21.22;60.44;101282.13;6235900;28;21553;-65
2023/09/01 11:31:55;;;;;;;4.75;1.63;;;;;;;22.45;57.16;101286.09;6237298;28;20235;-65
2023/09/01 11:35:26;;;;;;;1.83;1.30;;;;;;;23.54;54.17;101290.50;6249708;28;20236;-67
2023/09/01 11:38:48;;;;;;;3.35;1.25;;;;;;;23.18;54.22;101282.59;6241548;28;20236;-68
2023/09/01 11:42:10;;;;;;;2.42;1.42;;;;;;;23.87;53.68;101285.84;6242796;28;20235;-66
2023/09/01 11:45:32;;;;;;;1.10;1.00;;;;;;;24.36;51.85;101286.25;6235688;28;20232;-66
2023/09/01 11:48:55;;;;;;;3.92;1.90;;;;;;;23.73;53.09;101296.03;6247373;28;20322;-65
2023/09/01 11:52:16;;;;;;;2.45;1.23;;;;;;;22.91;54.35;101291.81;6232914;28;20247;-65
2023/09/01 11:55:38;;;;;;;2.67;1.10;;;;;;;22.72;56.37;101284.34;6247276;28;20225;-66
2023/09/01 11:59:00;;;;;;;2.20;1.70;;;;;;;21.83;55.58;101298.97;6245331;28;20644;-65
2023/09/01 12:02:22;;;;;;;3.28;1.67;;;;;;;22.90;53.42;101292.88;6251138;28;20291;-67
2023/09/01 12:05:44;;;;;;;2.15;1.10;;;;;;;24.55;50.61;101295.53;6255403;28;20782;-67
2023/09/01 12:09:19;;;;;;;5.38;1.08;;;;;;;24.35;50.63;101294.72;6237486;28;20253;-66
2023/09/01 12:12:40;;;;;;;1.38;0.90;;;;;;;23.87;50.18;101296.88;6239833;28;20235;-67
2023/09/01 12:16:02;;;;;;;1.67;0.77;;;;;;;25.66;47.69;101292.19;6249774;28;20247;-67
2023/09/01 12:19:25;;;;;;;1.45;1.35;;;;;;;23.26;50.23;101301.66;6237226;28;20228;-66
2023/09/01 12:22:47;;;;;;;1.88;1.05;;;;;;;23.08;50.63;101293.16;6242357;28;20621;-69
2023/09/01 12:26:08;;;;;;;2.65;1.33;;;;;;;23.79;49.76;101297.94;6234117;28;20862;-67
2023/09/01 12:29:29;;;;;;;1.45;0.85;;;;;;;23.99;48.88;101300.66;6236998;28;20235;-67
2023/09/01 12:32:50;;;;;;;2.08;1.10;;;;;;;24.91;47.17;101290.28;6245669;28;20236;-67
2023/09/01 12:36:12;;;;;;;1.55;1.10;;;;;;;26.13;44.77;101304.56;6242888;28;22353;-68
2023/09/01 12:39:36;;;;;;;2.85;1.20;;;;;;;25.00;46.88;101305.53;6246764;28;20490;-65
2023/09/01 12:42:56;;;;;;;3.75;2.15;;;;;;;25.32;46.92;101298.16;6231270;28;20310;-66
2023/09/01 12:46:20;;;;;;;2.50;1.80;;;;;;;27.77;42.37;101299.66;6240325;28;24458;-65
2023/09/01 12:49:43;;;;;;;1.42;1.33;;;;;;;23.07;48.90;101302.47;6238059;28;20300;-68
2023/09/01 12:53:04;;;;;;;2.97;1.33;;;;;;;22.78;49.41;101306.38;6242343;28;20231;-65
2023/09/01 12:56:27;;;;;;;4.07;2.35;;;;;;;23.37;49.13;101294.72;6241715;28;20239;-66
2023/09/01 12:59:47;;;;;;;5.68;1.42;;;;;;;24.18;48.80;101287.97;6244630;28;21184;-66
2023/09/01 13:03:08;;;;;;;1.77;1.20;;;;;;;24.14;47.69;101293.06;6249550;28;20235;-68
2023/09/01 13:06:29;;;;;;;3.42;1.48;;;;;;;24.59;46.50;101297.59;6249294;28;20232;-67
2023/09/01 13:09:50;;;;;;;3.30;1.20;;;;;;;24.40;45.88;101293.03;6247697;28;20251;-68
2023/09/01 13:13:14;;;;;;;1.10;1.00;;;;;;;26.48;42.38;101293.75;6249839;28;20239;-65
2023/09/01 13:16:35;;;;;;;0.90;0.90;;;;;;;25.10;43.48;101308.66;6247831;28;20231;-67
2023/09/01 13:19:56;;;;;;;1.25;0.70;;;;;;;26.56;42.31;101286.00;6248882;28;20231;-66
2023/09/01 13:23:17;;;;;;;6.53;1.45;;;;;;;23.79;45.94;101286.94;6243416;28;20254;-68
2023/09/01 13:26:38;;;;;;;2.58;1.10;;;;;;;25.11;44.68;101291.06;6246577;28;20222;-67
2023/09/01 13:30:01;;;;;;;1.13;0.93;;;;;;;25.08;43.62;101288.72;6238023;28;20329;-67
2023/09/01 13:33:22;;;;;;;3.55;0.98;;;;;;;24.54;45.02;101294.66;6245990;28;20235;-66
2023/09/01 13:36:43;;;;;;;1.67;1.13;;;;;;;27.18;41.28;101298.63;6249183;28;20613;-66
2023/09/01 13:40:04;;;;;;;1.50;0.82;;;;;;;26.84;38.76;101294.63;6253488;28;20571;-65
2023/09/01 13:43:26;;;;;;;1.10;1.00;;;;;;;26.79;39.07;101294.47;6252303;28;20333;-65
2023/09/01 13:46:48;;;;;;;1.55;0.98;;;;;;;27.44;38.88;101291.91;6246508;28;20306;-67
2023/09/01 13:50:10;;;;;;;1.48;0.98;;;;;;;27.42;38.84;101280.22;6252258;28;20628;-66
2023/09/01 13:53:30;;;;;;;3.53;1.30;;;;;;;28.41;37.41;101272.69;6249650;28;20254;-66
2023/09/01 13:56:52;;;;;;;1.83;0.88;;;;;;;27.97;37.36;101290.00;6252092;28;20235;-66
2023/09/01 14:00:14;;;;;;;2.08;0.80;;;;;;;26.05;39.82;101291.00;6251869;28;20231;-66
2023/09/01 14:03:36;;;;;;;3.25;1.60;;;;;;;27.77;38.77;101285.81;6252578;28;20228;-66
2023/09/01 14:06:57;;;;;;;4.07;1.00;;;;;;;28.59;36.74;101276.44;6256014;28;20239;-66
2023/09/01 14:10:18;;;;;;;1.80;1.10;;;;;;;27.90;36.65;101282.81;6253004;28;21116;-66
2023/09/01 14:13:39;;;;;;;1.90;1.15;;;;;;;26.25;38.80;101290.81;6255841;28;20232;-67
2023/09/01 14:17:00;;;;;;;0.98;0.70;;;;;;;26.13;38.42;101291.59;6252076;28;20350;-66
2023/09/01 14:20:22;;;;;;;7.88;5.57;;;;;;;28.82;36.28;101287.50;6245293;28;20315;-66
2023/09/01 14:23:43;;;;;;;4.20;3.50;;;;;;;27.76;36.40;101285.00;6239314;28;20232;-65
2023/09/01 14:27:05;;;;;;;7.32;1.67;;;;;;;28.30;37.52;101281.06;6247686;28;20224;-66
2023/09/01 14:30:26;;;;;;;1.20;1.00;;;;;;;28.98;35.23;101282.00;6238074;28;20247;-66
2023/09/01 14:33:47;;;;;;;1.20;0.73;;;;;;;28.21;37.20;101288.03;6250661;28;20234;-67
2023/09/01 14:37:09;;;;;;;1.10;0.85;;;;;;;27.95;36.29;101282.97;6247555;28;20239;-67
2023/09/01 14:40:30;;;;;;;1.65;1.20;;;;;;;27.69;38.08;101284.25;6250782;28;20243;-65
2023/09/01 14:43:52;;;;;;;2.78;2.15;;;;;;;26.79;39.05;101294.47;6248646;28;20311;-67
2023/09/01 14:47:12;;;;;;;4.05;3.10;;;;;;;25.73;40.17;101297.66;6248187;28;20239;-67
2023/09/01 14:50:33;;;;;;;2.10;1.17;;;;;;;23.53;44.14;101305.34;6243190;28;20735;-67
2023/09/01 14:53:55;;;;;;;1.90;1.30;;;;;;;23.54;44.01;101293.25;6257328;28;20283;-67
2023/09/01 14:57:17;;;;;;;2.33;1.20;;;;;;;22.80;47.05;101287.75;6245768;28;20236;-67
2023/09/01 15:00:38;;;;;;;0.95;0.82;;;;;;;22.65;46.79;101302.72;6252940;28;20228;-67
2023/09/01 15:03:59;;;;;;;2.00;0.88;;;;;;;22.84;46.13;101301.97;6254796;28;20224;-67
2023/09/01 15:07:21;;;;;;;1.45;0.80;;;;;;;22.88;44.93;101309.56;6248568;28;20326;-67
2023/09/01 15:10:43;;;;;;;0.75;0.75;;;;;;;23.26;43.20;101304.41;6247376;28;20763;-67
2023/09/01 15:14:04;;;;;;;1.17;0.80;;;;;;;23.16;42.46;101306.72;6243982;28;20223;-66
2023/09/01 15:17:26;;;;;;;0.85;0.77;;;;;;;23.06;43.02;101320.00;6243655;28;20771;-67
2023/09/01 15:20:47;;;;;;;1.42;1.02;;;;;;;24.03;42.46;101309.38;6250754;28;20610;-66
2023/09/01 15:24:08;;;;;;;3.47;2.75;;;;;;;24.19;42.16;101315.31;6249450;28;20260;-67
2023/09/01 15:27:31;;;;;;;1.52;1.23;;;;;;;24.50;41.39;101309.09;6248701;28;20231;-66
2023/09/01 15:30:52;;;;;;;1.63;0.93;;;;;;;24.49;41.14;101311.00;6252273;28;20240;-67
2023/09/01 15:34:12;;;;;;;1.20;0.95;;;;;;;24.39;40.84;101313.38;6254417;28;20231;-67
2023/09/01 15:37:33;;;;;;;2.28;0.93;;;;;;;23.05;42.20;101319.16;6249497;28;20282;-66
2023/09/01 15:40:56;;;;;;;1.85;0.93;;;;;;;23.76;42.30;101311.31;6246553;28;20256;-66